Washington, Connecticut
Current Conditions -  °F | °C
As of 11:26 AM on Sunday 21 Dec 2014 (Local Time) from KOXC Reporting Station
Haze Haze  
Wind Chill: 26°   Ceiling: 900
Heat Index: 32°   Visibility: 6mi
Dew Point: 25°   Wind: 7mph
Humidity: 75%   Direction: 10°N
Pressure: 30.27"   Gusts: NA
Location:  41.63°N, 73.31°W
Report Text: KOXC 211626Z 01006KT 6SM BR OVC009 00/M04 A3027
Loading
Personal Weather Stations






























Interactive Weather Map New forecast layout! Learn more

10-Day Weather Forecast

Advertisements
Track Severe Weather on mobile